sensor_id;sensor_type;location;lat;lon;timestamp;P1;P2;P0
76784;PMS7003;66893;44.316;0.092;2023-12-04T00:01:34;7.00;6.00;4.50
76784;PMS7003;66893;44.316;0.092;2023-12-04T00:04:00;9.00;6.00;5.00
76784;PMS7003;66893;44.316;0.092;2023-12-04T00:06:26;9.00;7.25;5.25
76784;PMS7003;66893;44.316;0.092;2023-12-04T00:08:52;5.25;5.00;4.00
76784;PMS7003;66893;44.316;0.092;2023-12-04T00:11:17;5.50;4.75;4.00
76784;PMS7003;66893;44.316;0.092;2023-12-04T00:13:43;5.00;5.00;3.75
76784;PMS7003;66893;44.316;0.092;2023-12-04T00:16:08;5.75;5.00;4.00
76784;PMS7003;66893;44.316;0.092;2023-12-04T00:18:34;7.00;7.00;4.50
76784;PMS7003;66893;44.316;0.092;2023-12-04T00:20:59;6.50;6.50;5.00
76784;PMS7003;66893;44.316;0.092;2023-12-04T00:23:24;8.25;6.00;4.00
76784;PMS7003;66893;44.316;0.092;2023-12-04T00:25:50;4.25;4.25;3.25
76784;PMS7003;66893;44.316;0.092;2023-12-04T00:28:15;4.50;4.50;4.00
76784;PMS7003;66893;44.316;0.092;2023-12-04T00:30:41;4.25;4.25;4.00
76784;PMS7003;66893;44.316;0.092;2023-12-04T00:33:06;6.00;5.00;4.00
76784;PMS7003;66893;44.316;0.092;2023-12-04T00:35:32;5.75;4.00;4.00
76784;PMS7003;66893;44.316;0.092;2023-12-04T00:37:57;5.00;5.00;4.25
76784;PMS7003;66893;44.316;0.092;2023-12-04T00:40:23;6.00;6.00;5.00
76784;PMS7003;66893;44.316;0.092;2023-12-04T00:42:48;4.75;4.75;3.75
76784;PMS7003;66893;44.316;0.092;2023-12-04T00:45:13;7.00;5.00;4.00
76784;PMS7003;66893;44.316;0.092;2023-12-04T00:47:39;6.00;6.00;4.00
76784;PMS7003;66893;44.316;0.092;2023-12-04T00:50:04;7.00;5.50;4.00
76784;PMS7003;66893;44.316;0.092;2023-12-04T00:52:30;6.75;5.50;4.00
76784;PMS7003;66893;44.316;0.092;2023-12-04T00:54:55;5.75;5.75;4.25
76784;PMS7003;66893;44.316;0.092;2023-12-04T00:57:21;8.25;5.25;4.00
76784;PMS7003;66893;44.316;0.092;2023-12-04T00:59:46;6.00;6.00;5.25
76784;PMS7003;66893;44.316;0.092;2023-12-04T01:02:12;5.00;5.00;4.00
76784;PMS7003;66893;44.316;0.092;2023-12-04T01:04:40;4.00;4.00;3.50
76784;PMS7003;66893;44.316;0.092;2023-12-04T01:07:06;7.25;5.00;4.25
76784;PMS7003;66893;44.316;0.092;2023-12-04T01:09:34;8.25;5.25;3.50
76784;PMS7003;66893;44.316;0.092;2023-12-04T01:12:00;5.75;4.00;3.00
76784;PMS7003;66893;44.316;0.092;2023-12-04T01:14:26;5.00;5.00;4.00
76784;PMS7003;66893;44.316;0.092;2023-12-04T01:16:52;2.25;2.25;2.00
76784;PMS7003;66893;44.316;0.092;2023-12-04T01:19:17;5.00;3.50;3.00
76784;PMS7003;66893;44.316;0.092;2023-12-04T01:21:43;7.25;4.00;3.00
76784;PMS7003;66893;44.316;0.092;2023-12-04T01:24:08;4.50;4.00;4.00
76784;PMS7003;66893;44.316;0.092;2023-12-04T01:26:34;5.00;4.00;3.00
76784;PMS7003;66893;44.316;0.092;2023-12-04T01:28:59;4.50;3.00;2.50
76784;PMS7003;66893;44.316;0.092;2023-12-04T01:31:25;4.00;4.00;3.00
76784;PMS7003;66893;44.316;0.092;2023-12-04T01:33:50;4.75;3.75;3.00
76784;PMS7003;66893;44.316;0.092;2023-12-04T01:36:16;4.00;4.00;3.50
76784;PMS7003;66893;44.316;0.092;2023-12-04T01:38:41;8.50;5.00;3.75
76784;PMS7003;66893;44.316;0.092;2023-12-04T01:41:06;4.25;4.00;3.00
76784;PMS7003;66893;44.316;0.092;2023-12-04T01:43:32;4.25;4.25;3.00
76784;PMS7003;66893;44.316;0.092;2023-12-04T01:45:58;2.00;2.00;2.00
76784;PMS7003;66893;44.316;0.092;2023-12-04T01:48:25;4.00;4.00;3.00
76784;PMS7003;66893;44.316;0.092;2023-12-04T01:50:52;3.00;3.00;2.50
76784;PMS7003;66893;44.316;0.092;2023-12-04T01:53:18;3.00;3.00;2.50
76784;PMS7003;66893;44.316;0.092;2023-12-04T01:55:44;4.00;3.50;2.75
76784;PMS7003;66893;44.316;0.092;2023-12-04T01:58:10;2.00;2.00;2.00
76784;PMS7003;66893;44.316;0.092;2023-12-04T02:00:36;3.75;3.75;2.75
76784;PMS7003;66893;44.316;0.092;2023-12-04T02:03:02;4.00;4.00;4.00
76784;PMS7003;66893;44.316;0.092;2023-12-04T02:05:27;4.50;3.00;2.50
76784;PMS7003;66893;44.316;0.092;2023-12-04T02:07:54;3.25;2.00;2.00
76784;PMS7003;66893;44.316;0.092;2023-12-04T02:10:20;3.00;3.00;2.00
76784;PMS7003;66893;44.316;0.092;2023-12-04T02:12:47;5.50;3.50;3.00
76784;PMS7003;66893;44.316;0.092;2023-12-04T02:15:12;2.75;2.75;1.75
76784;PMS7003;66893;44.316;0.092;2023-12-04T02:17:38;3.00;3.00;2.00
76784;PMS7003;66893;44.316;0.092;2023-12-04T02:20:04;3.00;3.00;3.00
76784;PMS7003;66893;44.316;0.092;2023-12-04T02:22:30;3.00;3.00;3.00
76784;PMS7003;66893;44.316;0.092;2023-12-04T02:24:56;3.50;3.00;2.00
76784;PMS7003;66893;44.316;0.092;2023-12-04T02:27:28;3.50;3.50;2.25
76784;PMS7003;66893;44.316;0.092;2023-12-04T02:29:59;2.75;2.75;2.00
76784;PMS7003;66893;44.316;0.092;2023-12-04T02:32:27;2.25;2.25;2.00
76784;PMS7003;66893;44.316;0.092;2023-12-04T02:34:55;5.00;2.75;2.00
76784;PMS7003;66893;44.316;0.092;2023-12-04T02:37:22;2.00;2.00;2.00
76784;PMS7003;66893;44.316;0.092;2023-12-04T02:39:49;3.00;3.00;2.50
76784;PMS7003;66893;44.316;0.092;2023-12-04T02:42:17;4.00;2.00;1.50
76784;PMS7003;66893;44.316;0.092;2023-12-04T02:44:44;2.00;2.00;1.50
76784;PMS7003;66893;44.316;0.092;2023-12-04T02:47:09;2.00;2.00;2.00
76784;PMS7003;66893;44.316;0.092;2023-12-04T02:49:35;2.00;2.00;2.00
76784;PMS7003;66893;44.316;0.092;2023-12-04T02:52:00;2.00;2.00;1.75
76784;PMS7003;66893;44.316;0.092;2023-12-04T02:54:27;3.50;2.00;1.25
76784;PMS7003;66893;44.316;0.092;2023-12-04T02:56:53;4.50;3.00;1.75
76784;PMS7003;66893;44.316;0.092;2023-12-04T02:59:18;3.00;2.75;2.00
76784;PMS7003;66893;44.316;0.092;2023-12-04T03:01:44;2.00;2.00;2.00
76784;PMS7003;66893;44.316;0.092;2023-12-04T03:04:09;2.50;2.50;1.75
76784;PMS7003;66893;44.316;0.092;2023-12-04T03:06:35;1.75;1.75;1.00
76784;PMS7003;66893;44.316;0.092;2023-12-04T03:09:00;2.25;1.50;1.25
76784;PMS7003;66893;44.316;0.092;2023-12-04T03:11:25;1.75;1.75;1.50
76784;PMS7003;66893;44.316;0.092;2023-12-04T03:13:51;3.25;2.00;2.00
76784;PMS7003;66893;44.316;0.092;2023-12-04T03:16:17;2.00;2.00;2.00
76784;PMS7003;66893;44.316;0.092;2023-12-04T03:18:43;3.25;1.25;1.00
76784;PMS7003;66893;44.316;0.092;2023-12-04T03:21:09;2.00;2.00;2.00
76784;PMS7003;66893;44.316;0.092;2023-12-04T03:23:34;3.75;2.00;2.00
76784;PMS7003;66893;44.316;0.092;2023-12-04T03:25:59;1.25;1.25;1.25
76784;PMS7003;66893;44.316;0.092;2023-12-04T03:28:25;3.50;2.75;2.00
76784;PMS7003;66893;44.316;0.092;2023-12-04T03:30:50;2.25;2.25;2.00
76784;PMS7003;66893;44.316;0.092;2023-12-04T03:33:15;2.00;2.00;2.00
76784;PMS7003;66893;44.316;0.092;2023-12-04T03:35:41;2.00;2.00;1.50
76784;PMS7003;66893;44.316;0.092;2023-12-04T03:38:06;2.00;1.75;1.25
76784;PMS7003;66893;44.316;0.092;2023-12-04T03:40:32;1.00;1.00;1.00
76784;PMS7003;66893;44.316;0.092;2023-12-04T03:42:57;2.50;2.50;1.75
76784;PMS7003;66893;44.316;0.092;2023-12-04T03:45:22;3.00;3.00;2.00
76784;PMS7003;66893;44.316;0.092;2023-12-04T03:47:48;2.75;2.75;2.00
76784;PMS7003;66893;44.316;0.092;2023-12-04T03:50:13;2.00;2.00;2.00
76784;PMS7003;66893;44.316;0.092;2023-12-04T03:52:40;2.00;2.00;1.75
76784;PMS7003;66893;44.316;0.092;2023-12-04T03:55:06;3.00;1.25;1.00
76784;PMS7003;66893;44.316;0.092;2023-12-04T03:57:33;1.00;1.00;1.00
76784;PMS7003;66893;44.316;0.092;2023-12-04T03:59:58;2.50;2.50;2.00
76784;PMS7003;66893;44.316;0.092;2023-12-04T04:02:24;2.00;2.00;2.00
76784;PMS7003;66893;44.316;0.092;2023-12-04T04:04:49;2.25;2.25;2.00
76784;PMS7003;66893;44.316;0.092;2023-12-04T04:07:15;3.00;3.00;2.00
76784;PMS7003;66893;44.316;0.092;2023-12-04T04:09:42;2.25;2.00;2.00
76784;PMS7003;66893;44.316;0.092;2023-12-04T04:12:07;2.50;2.50;1.75
76784;PMS7003;66893;44.316;0.092;2023-12-04T04:14:33;3.00;3.00;2.25
76784;PMS7003;66893;44.316;0.092;2023-12-04T04:16:58;2.00;2.00;1.75
76784;PMS7003;66893;44.316;0.092;2023-12-04T04:19:23;3.00;3.00;3.00
76784;PMS7003;66893;44.316;0.092;2023-12-04T04:21:49;3.00;2.50;2.00
76784;PMS7003;66893;44.316;0.092;2023-12-04T04:24:14;3.50;2.25;1.50
76784;PMS7003;66893;44.316;0.092;2023-12-04T04:26:40;2.25;2.00;1.50
76784;PMS7003;66893;44.316;0.092;2023-12-04T04:29:05;3.00;3.00;2.00
76784;PMS7003;66893;44.316;0.092;2023-12-04T04:31:31;3.75;3.00;2.00
76784;PMS7003;66893;44.316;0.092;2023-12-04T04:33:56;5.50;3.00;2.00
76784;PMS7003;66893;44.316;0.092;2023-12-04T04:36:21;3.00;2.00;2.00
76784;PMS7003;66893;44.316;0.092;2023-12-04T04:38:47;2.75;2.25;2.00
76784;PMS7003;66893;44.316;0.092;2023-12-04T04:41:13;4.00;2.25;2.00
76784;PMS7003;66893;44.316;0.092;2023-12-04T04:43:41;0.25;0.25;0.00
76784;PMS7003;66893;44.316;0.092;2023-12-04T04:46:07;5.00;3.25;3.00
76784;PMS7003;66893;44.316;0.092;2023-12-04T04:48:32;2.50;2.50;2.00
76784;PMS7003;66893;44.316;0.092;2023-12-04T04:50:58;3.00;3.00;2.25
76784;PMS7003;66893;44.316;0.092;2023-12-04T04:53:23;2.75;2.50;2.00
76784;PMS7003;66893;44.316;0.092;2023-12-04T04:55:48;3.00;3.00;2.00
76784;PMS7003;66893;44.316;0.092;2023-12-04T04:58:14;2.00;2.00;1.00
76784;PMS7003;66893;44.316;0.092;2023-12-04T05:00:40;2.50;2.50;2.00
76784;PMS7003;66893;44.316;0.092;2023-12-04T05:03:06;4.75;3.25;2.00
76784;PMS7003;66893;44.316;0.092;2023-12-04T05:05:31;3.25;3.25;2.25
76784;PMS7003;66893;44.316;0.092;2023-12-04T05:07:57;4.00;3.75;3.00
76784;PMS7003;66893;44.316;0.092;2023-12-04T05:10:22;4.00;4.00;3.00
76784;PMS7003;66893;44.316;0.092;2023-12-04T05:12:47;3.75;3.75;3.00
76784;PMS7003;66893;44.316;0.092;2023-12-04T05:15:13;2.75;2.75;2.00
76784;PMS7003;66893;44.316;0.092;2023-12-04T05:17:38;6.75;4.00;3.00
76784;PMS7003;66893;44.316;0.092;2023-12-04T05:20:04;4.50;3.00;2.00
76784;PMS7003;66893;44.316;0.092;2023-12-04T05:22:30;3.00;3.00;2.50
76784;PMS7003;66893;44.316;0.092;2023-12-04T05:24:55;3.00;2.00;1.00
76784;PMS7003;66893;44.316;0.092;2023-12-04T05:27:21;3.50;3.50;2.50
76784;PMS7003;66893;44.316;0.092;2023-12-04T05:29:46;3.25;3.00;2.00
76784;PMS7003;66893;44.316;0.092;2023-12-04T05:32:12;4.75;4.75;3.25
76784;PMS7003;66893;44.316;0.092;2023-12-04T05:34:38;4.00;3.75;3.50
76784;PMS7003;66893;44.316;0.092;2023-12-04T05:37:03;3.00;3.00;2.00
76784;PMS7003;66893;44.316;0.092;2023-12-04T05:39:29;5.25;5.25;3.00
76784;PMS7003;66893;44.316;0.092;2023-12-04T05:41:54;4.00;3.00;2.00
76784;PMS7003;66893;44.316;0.092;2023-12-04T05:44:20;3.00;2.50;2.50
76784;PMS7003;66893;44.316;0.092;2023-12-04T05:46:45;5.00;4.00;3.00
76784;PMS7003;66893;44.316;0.092;2023-12-04T05:49:10;4.50;4.50;3.00
76784;PMS7003;66893;44.316;0.092;2023-12-04T05:51:36;5.75;4.00;3.00
76784;PMS7003;66893;44.316;0.092;2023-12-04T05:54:01;5.75;4.75;3.00
76784;PMS7003;66893;44.316;0.092;2023-12-04T05:56:27;4.50;4.00;3.00
76784;PMS7003;66893;44.316;0.092;2023-12-04T05:58:52;4.00;4.00;3.00
76784;PMS7003;66893;44.316;0.092;2023-12-04T06:01:18;4.00;4.00;3.00
76784;PMS7003;66893;44.316;0.092;2023-12-04T06:03:43;4.00;3.75;3.00
76784;PMS7003;66893;44.316;0.092;2023-12-04T06:06:09;4.00;4.00;3.00
76784;PMS7003;66893;44.316;0.092;2023-12-04T06:08:34;3.75;3.00;2.50
76784;PMS7003;66893;44.316;0.092;2023-12-04T06:11:00;4.50;3.00;3.00
76784;PMS7003;66893;44.316;0.092;2023-12-04T06:13:25;5.50;4.25;3.00
76784;PMS7003;66893;44.316;0.092;2023-12-04T06:15:51;4.00;4.00;3.50
76784;PMS7003;66893;44.316;0.092;2023-12-04T06:18:16;3.25;3.00;2.50
76784;PMS7003;66893;44.316;0.092;2023-12-04T06:20:41;5.00;5.00;4.00
76784;PMS7003;66893;44.316;0.092;2023-12-04T06:23:07;5.00;5.00;3.50
76784;PMS7003;66893;44.316;0.092;2023-12-04T06:25:32;5.00;4.00;3.00
76784;PMS7003;66893;44.316;0.092;2023-12-04T06:27:58;4.00;4.00;3.50
76784;PMS7003;66893;44.316;0.092;2023-12-04T06:30:24;5.00;4.00;3.25
76784;PMS7003;66893;44.316;0.092;2023-12-04T06:32:50;3.00;3.00;3.00
76784;PMS7003;66893;44.316;0.092;2023-12-04T06:35:15;4.25;3.00;2.00
76784;PMS7003;66893;44.316;0.092;2023-12-04T06:37:41;4.25;3.00;2.00
76784;PMS7003;66893;44.316;0.092;2023-12-04T06:40:09;6.00;5.00;3.75
76784;PMS7003;66893;44.316;0.092;2023-12-04T06:42:36;4.00;3.00;2.00
76784;PMS7003;66893;44.316;0.092;2023-12-04T06:45:02;4.50;4.50;4.00
76784;PMS7003;66893;44.316;0.092;2023-12-04T06:47:28;7.00;5.50;4.00
76784;PMS7003;66893;44.316;0.092;2023-12-04T06:49:56;7.00;5.00;4.50
76784;PMS7003;66893;44.316;0.092;2023-12-04T06:52:21;5.00;5.00;4.00
76784;PMS7003;66893;44.316;0.092;2023-12-04T06:54:47;5.50;5.00;3.00
76784;PMS7003;66893;44.316;0.092;2023-12-04T06:57:12;3.50;3.50;2.00
76784;PMS7003;66893;44.316;0.092;2023-12-04T06:59:40;6.50;6.00;4.00
76784;PMS7003;66893;44.316;0.092;2023-12-04T07:02:06;2.50;2.00;1.00
76784;PMS7003;66893;44.316;0.092;2023-12-04T07:04:32;5.00;4.75;4.25
76784;PMS7003;66893;44.316;0.092;2023-12-04T07:06:57;5.25;4.50;4.00
76784;PMS7003;66893;44.316;0.092;2023-12-04T07:09:26;7.00;6.00;4.00
76784;PMS7003;66893;44.316;0.092;2023-12-04T07:11:52;3.00;3.00;2.00
76784;PMS7003;66893;44.316;0.092;2023-12-04T07:14:18;8.00;8.00;5.50
76784;PMS7003;66893;44.316;0.092;2023-12-04T07:16:43;5.00;4.75;3.75
76784;PMS7003;66893;44.316;0.092;2023-12-04T07:19:09;6.00;6.00;4.00
76784;PMS7003;66893;44.316;0.092;2023-12-04T07:21:36;8.00;6.50;4.00
76784;PMS7003;66893;44.316;0.092;2023-12-04T07:24:02;5.25;4.00;3.00
76784;PMS7003;66893;44.316;0.092;2023-12-04T07:26:28;7.50;6.00;5.00
76784;PMS7003;66893;44.316;0.092;2023-12-04T07:28:53;5.75;5.50;4.50
76784;PMS7003;66893;44.316;0.092;2023-12-04T07:31:19;8.00;5.00;4.75
76784;PMS7003;66893;44.316;0.092;2023-12-04T07:33:44;6.00;6.00;4.50
76784;PMS7003;66893;44.316;0.092;2023-12-04T07:36:10;6.75;5.00;3.75
76784;PMS7003;66893;44.316;0.092;2023-12-04T07:38:35;5.50;5.00;4.00
76784;PMS7003;66893;44.316;0.092;2023-12-04T07:41:00;4.25;4.25;4.00
76784;PMS7003;66893;44.316;0.092;2023-12-04T07:43:26;7.25;6.50;4.75
76784;PMS7003;66893;44.316;0.092;2023-12-04T07:45:52;7.50;5.00;4.00
76784;PMS7003;66893;44.316;0.092;2023-12-04T07:48:20;5.50;5.50;5.00
76784;PMS7003;66893;44.316;0.092;2023-12-04T07:50:45;6.50;6.50;5.00
76784;PMS7003;66893;44.316;0.092;2023-12-04T07:53:10;6.50;6.50;5.00
76784;PMS7003;66893;44.316;0.092;2023-12-04T07:55:37;6.50;5.75;4.00
76784;PMS7003;66893;44.316;0.092;2023-12-04T07:58:02;6.75;5.25;4.00
76784;PMS7003;66893;44.316;0.092;2023-12-04T08:00:28;7.25;6.00;4.00
76784;PMS7003;66893;44.316;0.092;2023-12-04T08:02:53;6.00;6.00;4.50
76784;PMS7003;66893;44.316;0.092;2023-12-04T08:05:18;6.25;6.25;5.00
76784;PMS7003;66893;44.316;0.092;2023-12-04T08:07:44;9.50;7.00;5.00
76784;PMS7003;66893;44.316;0.092;2023-12-04T08:10:10;6.75;6.25;5.25
76784;PMS7003;66893;44.316;0.092;2023-12-04T08:12:35;7.00;7.00;5.00
76784;PMS7003;66893;44.316;0.092;2023-12-04T08:15:01;9.00;7.25;6.00
76784;PMS7003;66893;44.316;0.092;2023-12-04T08:17:28;8.50;6.75;5.00
76784;PMS7003;66893;44.316;0.092;2023-12-04T08:19:53;6.75;6.75;5.00
76784;PMS7003;66893;44.316;0.092;2023-12-04T08:22:19;7.00;6.25;4.50
76784;PMS7003;66893;44.316;0.092;2023-12-04T08:24:44;6.50;5.00;4.00
76784;PMS7003;66893;44.316;0.092;2023-12-04T08:27:10;6.00;5.00;4.00
76784;PMS7003;66893;44.316;0.092;2023-12-04T08:29:35;8.50;6.00;5.00
76784;PMS7003;66893;44.316;0.092;2023-12-04T08:32:01;5.75;5.00;4.00
76784;PMS7003;66893;44.316;0.092;2023-12-04T08:34:26;7.25;5.25;4.00
76784;PMS7003;66893;44.316;0.092;2023-12-04T08:36:52;6.75;6.50;4.25
76784;PMS7003;66893;44.316;0.092;2023-12-04T08:39:18;6.00;6.00;4.25
76784;PMS7003;66893;44.316;0.092;2023-12-04T08:41:46;8.00;7.00;5.00
76784;PMS7003;66893;44.316;0.092;2023-12-04T08:44:12;3.00;3.00;2.00
76784;PMS7003;66893;44.316;0.092;2023-12-04T08:46:38;5.00;4.00;4.00
76784;PMS7003;66893;44.316;0.092;2023-12-04T08:49:03;7.00;6.00;5.00
76784;PMS7003;66893;44.316;0.092;2023-12-04T08:51:29;5.00;5.00;4.00
76784;PMS7003;66893;44.316;0.092;2023-12-04T08:53:55;6.00;6.00;5.00
76784;PMS7003;66893;44.316;0.092;2023-12-04T08:56:21;5.75;5.00;4.00
76784;PMS7003;66893;44.316;0.092;2023-12-04T08:58:46;7.00;6.00;4.50
76784;PMS7003;66893;44.316;0.092;2023-12-04T09:01:12;11.50;11.00;9.00
76784;PMS7003;66893;44.316;0.092;2023-12-04T09:03:37;10.00;8.00;5.25
76784;PMS7003;66893;44.316;0.092;2023-12-04T09:06:03;7.25;7.25;5.00
76784;PMS7003;66893;44.316;0.092;2023-12-04T09:08:28;7.00;6.50;5.50
76784;PMS7003;66893;44.316;0.092;2023-12-04T09:10:54;6.50;6.00;4.25
76784;PMS7003;66893;44.316;0.092;2023-12-04T09:13:22;5.25;5.25;4.25
76784;PMS7003;66893;44.316;0.092;2023-12-04T09:15:48;4.75;4.75;3.75
76784;PMS7003;66893;44.316;0.092;2023-12-04T09:18:13;6.25;6.00;5.00
76784;PMS7003;66893;44.316;0.092;2023-12-04T09:20:38;7.75;6.00;4.00
76784;PMS7003;66893;44.316;0.092;2023-12-04T09:23:04;9.00;6.00;4.00
76784;PMS7003;66893;44.316;0.092;2023-12-04T09:25:29;8.00;7.50;6.50
76784;PMS7003;66893;44.316;0.092;2023-12-04T09:27:55;4.25;4.25;4.00
76784;PMS7003;66893;44.316;0.092;2023-12-04T09:30:20;7.25;7.00;5.75
76784;PMS7003;66893;44.316;0.092;2023-12-04T09:32:45;6.50;6.25;5.50
76784;PMS7003;66893;44.316;0.092;2023-12-04T09:35:11;7.00;5.50;4.75
76784;PMS7003;66893;44.316;0.092;2023-12-04T09:37:36;5.50;5.00;4.25
76784;PMS7003;66893;44.316;0.092;2023-12-04T09:40:02;7.75;7.75;6.00
76784;PMS7003;66893;44.316;0.092;2023-12-04T09:42:29;8.25;6.25;5.25
76784;PMS7003;66893;44.316;0.092;2023-12-04T09:44:55;5.25;5.25;5.00
76784;PMS7003;66893;44.316;0.092;2023-12-04T09:47:22;7.25;7.25;6.00
76784;PMS7003;66893;44.316;0.092;2023-12-04T09:49:48;9.00;7.50;6.00
76784;PMS7003;66893;44.316;0.092;2023-12-04T09:52:16;7.00;5.00;4.00
76784;PMS7003;66893;44.316;0.092;2023-12-04T09:54:42;9.00;6.00;4.25
76784;PMS7003;66893;44.316;0.092;2023-12-04T09:57:09;6.50;6.00;5.25
76784;PMS7003;66893;44.316;0.092;2023-12-04T09:59:35;6.75;4.50;4.00
76784;PMS7003;66893;44.316;0.092;2023-12-04T10:02:01;8.00;5.00;4.25
76784;PMS7003;66893;44.316;0.092;2023-12-04T10:04:27;5.75;5.75;4.00
76784;PMS7003;66893;44.316;0.092;2023-12-04T10:06:52;4.75;4.75;4.00
76784;PMS7003;66893;44.316;0.092;2023-12-04T10:09:18;6.50;4.50;3.25
76784;PMS7003;66893;44.316;0.092;2023-12-04T10:11:44;4.00;4.00;3.50
76784;PMS7003;66893;44.316;0.092;2023-12-04T10:14:20;4.00;4.00;3.00
76784;PMS7003;66893;44.316;0.092;2023-12-04T10:16:46;5.25;4.50;4.00
76784;PMS7003;66893;44.316;0.092;2023-12-04T10:19:16;6.25;5.75;5.00
76784;PMS7003;66893;44.316;0.092;2023-12-04T10:21:43;7.00;4.00;4.00
76784;PMS7003;66893;44.316;0.092;2023-12-04T10:24:09;6.75;4.00;4.00
76784;PMS7003;66893;44.316;0.092;2023-12-04T10:26:35;4.50;4.50;3.25
76784;PMS7003;66893;44.316;0.092;2023-12-04T10:29:01;8.75;5.00;4.00
76784;PMS7003;66893;44.316;0.092;2023-12-04T10:31:34;5.75;5.50;4.00
76784;PMS7003;66893;44.316;0.092;2023-12-04T10:34:00;5.00;5.00;5.00
76784;PMS7003;66893;44.316;0.092;2023-12-04T10:36:27;5.00;4.00;3.00
76784;PMS7003;66893;44.316;0.092;2023-12-04T10:38:59;4.00;2.75;1.00
76784;PMS7003;66893;44.316;0.092;2023-12-04T10:41:25;6.50;5.00;5.00
76784;PMS7003;66893;44.316;0.092;2023-12-04T10:43:51;4.00;4.00;3.00
76784;PMS7003;66893;44.316;0.092;2023-12-04T10:46:16;3.75;3.50;3.00
76784;PMS7003;66893;44.316;0.092;2023-12-04T10:48:46;7.00;4.00;3.00
76784;PMS7003;66893;44.316;0.092;2023-12-04T10:51:12;7.75;4.75;3.00
76784;PMS7003;66893;44.316;0.092;2023-12-04T10:53:38;5.25;3.00;3.00
76784;PMS7003;66893;44.316;0.092;2023-12-04T10:56:12;3.00;2.00;2.00
76784;PMS7003;66893;44.316;0.092;2023-12-04T10:58:43;3.00;3.00;2.00
76784;PMS7003;66893;44.316;0.092;2023-12-04T11:01:14;3.00;3.00;3.00
76784;PMS7003;66893;44.316;0.092;2023-12-04T11:03:43;2.00;2.00;2.00
76784;PMS7003;66893;44.316;0.092;2023-12-04T11:06:10;3.25;3.25;3.00
76784;PMS7003;66893;44.316;0.092;2023-12-04T11:08:38;3.75;3.75;3.00
76784;PMS7003;66893;44.316;0.092;2023-12-04T11:11:08;3.00;3.00;2.00
76784;PMS7003;66893;44.316;0.092;2023-12-04T11:13:39;4.75;3.25;3.00
76784;PMS7003;66893;44.316;0.092;2023-12-04T11:16:12;3.00;3.00;2.75
76784;PMS7003;66893;44.316;0.092;2023-12-04T11:18:43;2.25;2.00;2.00
76784;PMS7003;66893;44.316;0.092;2023-12-04T11:21:13;2.00;2.00;2.00
76784;PMS7003;66893;44.316;0.092;2023-12-04T11:23:38;4.75;3.00;3.00
76784;PMS7003;66893;44.316;0.092;2023-12-04T11:26:05;3.00;3.00;3.00
76784;PMS7003;66893;44.316;0.092;2023-12-04T11:28:32;4.00;2.25;2.00
76784;PMS7003;66893;44.316;0.092;2023-12-04T11:30:59;2.25;2.25;2.00
76784;PMS7003;66893;44.316;0.092;2023-12-04T11:33:26;3.75;3.75;3.00
76784;PMS7003;66893;44.316;0.092;2023-12-04T11:35:51;3.75;3.50;3.00
76784;PMS7003;66893;44.316;0.092;2023-12-04T11:38:17;4.25;3.00;3.00
76784;PMS7003;66893;44.316;0.092;2023-12-04T11:40:43;4.50;3.00;3.00
76784;PMS7003;66893;44.316;0.092;2023-12-04T11:43:27;3.00;3.00;2.00
76784;PMS7003;66893;44.316;0.092;2023-12-04T11:46:41;8.25;4.00;3.00
76784;PMS7003;66893;44.316;0.092;2023-12-04T11:48:48;5.00;2.00;2.00
76784;PMS7003;66893;44.316;0.092;2023-12-04T11:51:15;3.50;2.00;2.00
76784;PMS7003;66893;44.316;0.092;2023-12-04T11:54:00;6.75;1.75;1.75
76784;PMS7003;66893;44.316;0.092;2023-12-04T11:56:28;3.00;3.00;2.00
76784;PMS7003;66893;44.316;0.092;2023-12-04T11:58:53;3.50;1.50;1.00
76784;PMS7003;66893;44.316;0.092;2023-12-04T12:01:28;4.75;3.00;2.00
76784;PMS7003;66893;44.316;0.092;2023-12-04T12:03:58;2.00;2.00;1.25
76784;PMS7003;66893;44.316;0.092;2023-12-04T12:06:24;5.00;2.00;1.00
76784;PMS7003;66893;44.316;0.092;2023-12-04T12:08:49;2.00;2.00;1.75
76784;PMS7003;66893;44.316;0.092;2023-12-04T12:11:15;2.00;2.00;1.25
76784;PMS7003;66893;44.316;0.092;2023-12-04T12:13:41;2.00;2.00;2.00
76784;PMS7003;66893;44.316;0.092;2023-12-04T12:16:07;1.00;1.00;1.00
76784;PMS7003;66893;44.316;0.092;2023-12-04T12:18:35;5.50;2.00;1.25
76784;PMS7003;66893;44.316;0.092;2023-12-04T12:21:01;2.00;2.00;1.25
76784;PMS7003;66893;44.316;0.092;2023-12-04T12:23:26;3.00;3.00;2.00
76784;PMS7003;66893;44.316;0.092;2023-12-04T12:25:52;1.00;1.00;1.00
76784;PMS7003;66893;44.316;0.092;2023-12-04T12:28:18;3.00;1.00;1.00
76784;PMS7003;66893;44.316;0.092;2023-12-04T12:30:44;1.00;1.00;1.00
76784;PMS7003;66893;44.316;0.092;2023-12-04T12:33:12;1.00;1.00;1.00
76784;PMS7003;66893;44.316;0.092;2023-12-04T12:35:39;1.25;1.25;1.00
76784;PMS7003;66893;44.316;0.092;2023-12-04T12:38:04;1.00;1.00;1.00
76784;PMS7003;66893;44.316;0.092;2023-12-04T12:40:30;4.00;1.25;1.00
76784;PMS7003;66893;44.316;0.092;2023-12-04T12:43:08;1.00;1.00;1.00
76784;PMS7003;66893;44.316;0.092;2023-12-04T12:45:44;2.00;1.00;0.75
76784;PMS7003;66893;44.316;0.092;2023-12-04T12:48:13;1.00;1.00;1.00
76784;PMS7003;66893;44.316;0.092;2023-12-04T12:50:39;1.00;1.00;1.00
76784;PMS7003;66893;44.316;0.092;2023-12-04T12:53:06;1.00;0.75;0.75
76784;PMS7003;66893;44.316;0.092;2023-12-04T12:55:31;1.00;1.00;0.75
76784;PMS7003;66893;44.316;0.092;2023-12-04T12:57:56;2.00;1.00;0.00
76784;PMS7003;66893;44.316;0.092;2023-12-04T13:00:22;0.00;0.00;0.00
76784;PMS7003;66893;44.316;0.092;2023-12-04T13:02:48;0.00;0.00;0.00
76784;PMS7003;66893;44.316;0.092;2023-12-04T13:05:16;1.50;1.50;1.00
76784;PMS7003;66893;44.316;0.092;2023-12-04T13:07:42;3.00;1.00;1.00
76784;PMS7003;66893;44.316;0.092;2023-12-04T13:10:08;1.00;1.00;1.00
76784;PMS7003;66893;44.316;0.092;2023-12-04T13:12:33;1.00;1.00;1.00
76784;PMS7003;66893;44.316;0.092;2023-12-04T13:14:59;1.25;1.25;0.75
76784;PMS7003;66893;44.316;0.092;2023-12-04T13:17:24;2.00;2.00;1.00
76784;PMS7003;66893;44.316;0.092;2023-12-04T13:19:50;1.00;1.00;1.00
76784;PMS7003;66893;44.316;0.092;2023-12-04T13:22:15;2.00;2.00;1.00
76784;PMS7003;66893;44.316;0.092;2023-12-04T13:24:41;2.00;2.00;2.00
76784;PMS7003;66893;44.316;0.092;2023-12-04T13:27:06;2.00;2.00;1.25
76784;PMS7003;66893;44.316;0.092;2023-12-04T13:29:33;2.00;1.50;1.00
76784;PMS7003;66893;44.316;0.092;2023-12-04T13:31:59;2.00;2.00;1.25
76784;PMS7003;66893;44.316;0.092;2023-12-04T13:34:24;1.00;1.00;1.00
76784;PMS7003;66893;44.316;0.092;2023-12-04T13:36:50;2.25;1.50;1.25
76784;PMS7003;66893;44.316;0.092;2023-12-04T13:39:15;3.50;3.00;2.00
76784;PMS7003;66893;44.316;0.092;2023-12-04T13:41:51;4.25;2.00;2.00
76784;PMS7003;66893;44.316;0.092;2023-12-04T13:44:35;3.00;3.00;2.00
76784;PMS7003;66893;44.316;0.092;2023-12-04T13:47:01;3.25;3.00;2.00
76784;PMS7003;66893;44.316;0.092;2023-12-04T13:49:26;5.50;2.75;2.25
76784;PMS7003;66893;44.316;0.092;2023-12-04T13:51:52;2.75;2.75;2.50
76784;PMS7003;66893;44.316;0.092;2023-12-04T13:54:18;4.25;4.25;4.00
76784;PMS7003;66893;44.316;0.092;2023-12-04T13:56:52;5.00;3.75;3.00
76784;PMS7003;66893;44.316;0.092;2023-12-04T13:59:18;4.00;2.00;2.00
76784;PMS7003;66893;44.316;0.092;2023-12-04T14:01:45;4.00;4.00;3.00
76784;PMS7003;66893;44.316;0.092;2023-12-04T14:04:11;4.50;4.00;3.00
76784;PMS7003;66893;44.316;0.092;2023-12-04T14:06:37;3.00;3.00;3.00
76784;PMS7003;66893;44.316;0.092;2023-12-04T14:09:02;4.00;3.50;3.00
76784;PMS7003;66893;44.316;0.092;2023-12-04T14:11:35;5.75;3.00;3.00
76784;PMS7003;66893;44.316;0.092;2023-12-04T14:15:11;2.00;2.00;1.75
76784;PMS7003;66893;44.316;0.092;2023-12-04T14:17:36;3.25;2.00;2.00
76784;PMS7003;66893;44.316;0.092;2023-12-04T14:20:04;4.00;2.00;2.00